Milford, Utah
Current Conditions -  °F | °C
As of 1:52 PM on Sunday 23 Nov 2014 (Local Time) from KMLF Reporting Station
Clear Clear  
Wind Chill: 34°   Ceiling: Unl
Heat Index: 41°   Visibility: 10mi
Dew Point: 16°   Wind: 13mph
Humidity: 36%   Direction: 40°NE
Pressure: 30.24"   Gusts: 22mph
Location:  38.4°N, 113.01°W
Report Text: KMLF 232052Z AUTO 04011G19KT 10SM CLR 05/M09 A3024 RMK AO2 SLP244 T00501089 58010 TSNO
Loading
Personal Weather Stations






























Interactive Weather Map New forecast layout! Learn more

10-Day Weather Forecast

Advertisements
Track Severe Weather on mobile